createdAt,value
2018-06-21T00:00:52.912Z,16.27
2018-06-21T00:01:52.908Z,16.36
2018-06-21T00:02:53.156Z,16.29
2018-06-21T00:03:52.892Z,16.33
2018-06-21T00:04:52.896Z,16.33
2018-06-21T00:05:53.152Z,16.27
2018-06-21T00:06:52.889Z,16.3
2018-06-21T00:07:53.136Z,16.27
2018-06-21T00:08:52.878Z,16.3
2018-06-21T00:09:53.130Z,16.29
2018-06-21T00:10:53.129Z,16.29
2018-06-21T00:11:53.124Z,16.3
2018-06-21T00:12:53.121Z,16.3
2018-06-21T00:13:53.113Z,16.27
2018-06-21T00:14:53.112Z,16.3
2018-06-21T00:15:53.120Z,16.3
2018-06-21T00:16:52.845Z,16.32
2018-06-21T00:17:53.099Z,16.32
2018-06-21T00:18:53.103Z,16.29
2018-06-21T00:19:53.090Z,16.25
2018-06-21T00:20:53.094Z,16.29
2018-06-21T00:21:53.081Z,16.16
2018-06-21T00:22:53.084Z,16.29
2018-06-21T00:23:53.074Z,16.21
2018-06-21T00:24:53.078Z,16.34
2018-06-21T00:25:52.810Z,16.3
2018-06-21T00:26:53.061Z,16.29
2018-06-21T00:27:52.804Z,16.33
2018-06-21T00:28:53.060Z,16.29
2018-06-21T00:29:53.053Z,16.3
2018-06-21T00:30:53.048Z,16.17
2018-06-21T00:31:53.040Z,16.3
2018-06-21T00:32:52.783Z,16.18
2018-06-21T00:33:52.779Z,16.27
2018-06-21T00:34:52.773Z,16.14
2018-06-21T00:35:52.778Z,16.29
2018-06-21T00:36:53.020Z,16.29
2018-06-21T00:37:53.018Z,16.34
2018-06-21T00:38:53.017Z,16.34
2018-06-21T00:39:53.015Z,16.26
2018-06-21T00:40:53.007Z,16.18
2018-06-21T00:41:53.004Z,16.26
2018-06-21T00:42:52.998Z,16.18
2018-06-21T00:43:52.736Z,16.13
2018-06-21T00:44:53.003Z,16.14
2018-06-21T00:45:52.984Z,16.22
2018-06-21T00:46:52.730Z,16.17
2018-06-21T00:47:52.979Z,16.33
2018-06-21T00:48:52.977Z,16.25
2018-06-21T00:49:52.984Z,16.25
2018-06-21T00:50:52.709Z,16.27
2018-06-21T00:51:52.962Z,16.32
2018-06-21T00:52:52.701Z,16.25
2018-06-21T00:53:52.955Z,16.29
2018-06-21T00:54:52.697Z,16.32
2018-06-21T00:55:52.944Z,16.3
2018-06-21T00:56:52.941Z,16.34
2018-06-21T00:57:52.936Z,16.22
2018-06-21T00:58:52.420Z,16.1
2018-06-21T00:59:52.926Z,16.17
2018-06-21T01:00:52.923Z,16.14
2018-06-21T01:01:52.920Z,16.16
2018-06-21T01:02:52.912Z,16.06
2018-06-21T01:03:52.910Z,16.04
2018-06-21T01:04:52.904Z,15.99
2018-06-21T01:05:52.904Z,15.99
2018-06-21T01:06:52.643Z,15.93
2018-06-21T01:07:52.640Z,15.93
2018-06-21T01:08:52.886Z,15.88
2018-06-21T01:09:52.884Z,15.83
2018-06-21T01:10:52.881Z,15.92
2018-06-21T01:11:52.624Z,15.92
2018-06-21T01:12:52.866Z,15.86
2018-06-21T01:13:52.612Z,15.8
2018-06-21T01:14:52.610Z,15.71
2018-06-21T01:15:52.856Z,15.8
2018-06-21T01:16:52.851Z,15.74
2018-06-21T01:17:52.594Z,15.73
2018-06-21T01:18:52.853Z,15.78
2018-06-21T01:19:52.843Z,15.75
2018-06-21T01:20:52.841Z,15.77
2018-06-21T01:21:52.829Z,15.74
2018-06-21T01:22:52.835Z,15.77
2018-06-21T01:23:52.827Z,15.71
2018-06-21T01:24:52.821Z,15.65
2018-06-21T01:25:52.822Z,15.7
2018-06-21T01:26:52.812Z,15.58
2018-06-21T01:27:52.549Z,15.6
2018-06-21T01:28:52.545Z,15.55
2018-06-21T01:29:52.547Z,15.67
2018-06-21T01:30:52.536Z,15.62
2018-06-21T01:31:52.795Z,15.55
2018-06-21T01:32:52.838Z,15.62
2018-06-21T01:33:52.779Z,15.56
2018-06-21T01:34:52.775Z,15.53
2018-06-21T01:35:52.772Z,15.58
2018-06-21T01:36:52.772Z,15.51
2018-06-21T01:37:52.510Z,15.47
2018-06-21T01:38:52.754Z,15.52
2018-06-21T01:39:52.756Z,15.52
2018-06-21T01:40:52.497Z,15.41
2018-06-21T01:41:52.748Z,15.45
2018-06-21T01:42:52.481Z,15.41
2018-06-21T01:43:52.222Z,15.37
2018-06-21T01:44:52.731Z,15.4
2018-06-21T01:45:52.725Z,15.34
2018-06-21T01:46:52.724Z,15.33
2018-06-21T01:47:52.775Z,15.33
2018-06-21T01:48:52.455Z,15.31
2018-06-21T01:49:52.449Z,15.27
2018-06-21T01:50:52.700Z,15.27
2018-06-21T01:51:52.698Z,15.2
2018-06-21T01:52:52.696Z,15.25
2018-06-21T01:53:52.735Z,15.2
2018-06-21T01:54:52.432Z,15.22
2018-06-21T01:55:52.679Z,15.22
2018-06-21T01:56:52.423Z,15.23
2018-06-21T01:57:52.672Z,15.23
2018-06-21T01:58:52.667Z,15.16
2018-06-21T01:59:52.662Z,15.2
2018-06-21T02:00:52.657Z,15.1
2018-06-21T02:01:52.651Z,15.1
2018-06-21T02:02:52.392Z,15.08
2018-06-21T02:03:52.643Z,15.04
2018-06-21T02:04:52.643Z,15.01
2018-06-21T02:05:52.636Z,15.05
2018-06-21T02:06:52.629Z,15.1
2018-06-21T02:07:52.364Z,15.01
2018-06-21T02:08:52.616Z,15.07
2018-06-21T02:09:52.614Z,15.07
2018-06-21T02:10:52.359Z,15.05
2018-06-21T02:11:52.100Z,15.02
2018-06-21T02:12:52.598Z,14.97
2018-06-21T02:13:52.341Z,14.98
2018-06-21T02:14:52.336Z,14.97
2018-06-21T02:15:52.586Z,14.97
2018-06-21T02:16:52.324Z,14.86
2018-06-21T02:17:52.321Z,14.95
2018-06-21T02:18:52.314Z,14.95
2018-06-21T02:19:52.583Z,15.02
2018-06-21T02:20:52.563Z,14.94
2018-06-21T02:21:52.566Z,14.94
2018-06-21T02:22:52.298Z,15.01
2018-06-21T02:23:52.555Z,15.02
2018-06-21T02:24:52.549Z,15.01
2018-06-21T02:25:52.282Z,15.04
2018-06-21T02:26:52.531Z,15.02
2018-06-21T02:27:52.532Z,15.02
2018-06-21T02:28:52.518Z,15.04
2018-06-21T02:29:52.513Z,15.01
2018-06-21T02:30:52.515Z,15.01
2018-06-21T02:31:52.508Z,14.98
2018-06-21T02:32:52.505Z,15.02
2018-06-21T02:33:52.517Z,15.08
2018-06-21T02:34:52.499Z,15.08
2018-06-21T02:35:52.493Z,15.05
2018-06-21T02:36:52.505Z,15.05
2018-06-21T02:37:52.473Z,15.05
2018-06-21T02:38:52.477Z,15.04
2018-06-21T02:39:52.475Z,14.98
2018-06-21T02:40:52.215Z,14.98
2018-06-21T02:41:52.460Z,14.97
2018-06-21T02:42:52.193Z,15.01
2018-06-21T02:43:52.190Z,14.98
2018-06-21T02:44:52.188Z,14.98
2018-06-21T02:45:52.181Z,14.95
2018-06-21T02:46:52.177Z,15
2018-06-21T02:47:52.174Z,14.95
2018-06-21T02:48:52.439Z,14.95
2018-06-21T02:49:52.417Z,14.95
2018-06-21T02:50:52.159Z,14.9
2018-06-21T02:51:52.424Z,14.97
2018-06-21T02:52:52.407Z,14.89
2018-06-21T02:53:52.142Z,14.87
2018-06-21T02:54:52.137Z,14.87
2018-06-21T02:55:51.874Z,14.89
2018-06-21T02:56:52.392Z,14.83
2018-06-21T02:57:52.378Z,14.83
2018-06-21T02:58:52.125Z,14.87
2018-06-21T02:59:52.361Z,14.86
2018-06-21T03:00:52.367Z,14.85
2018-06-21T03:01:52.370Z,14.82
2018-06-21T03:02:51.836Z,14.83
2018-06-21T03:03:52.609Z,14.87
2018-06-21T03:04:52.348Z,14.89
2018-06-21T03:05:52.335Z,14.79
2018-06-21T03:06:52.079Z,14.83
2018-06-21T03:07:52.069Z,14.74
2018-06-21T03:08:52.064Z,14.82
2018-06-21T03:09:52.318Z,14.74
2018-06-21T03:10:51.799Z,14.7
2018-06-21T03:11:52.308Z,14.74
2018-06-21T03:12:52.303Z,14.77
2018-06-21T03:13:52.290Z,14.75
2018-06-21T03:14:51.784Z,14.82
2018-06-21T03:15:52.286Z,14.79
2018-06-21T03:16:52.027Z,14.79
2018-06-21T03:17:52.275Z,14.86
2018-06-21T03:18:52.334Z,14.85
2018-06-21T03:19:52.265Z,14.77
2018-06-21T03:20:52.001Z,14.77
2018-06-21T03:21:52.253Z,14.79
2018-06-21T03:22:52.254Z,14.8
2018-06-21T03:23:51.984Z,14.74
2018-06-21T03:24:52.239Z,14.8
2018-06-21T03:25:52.230Z,14.79
2018-06-21T03:26:52.225Z,14.71
2018-06-21T03:27:52.218Z,14.83
2018-06-21T03:28:52.217Z,14.74
2018-06-21T03:29:52.216Z,14.8
2018-06-21T03:30:51.956Z,14.71
2018-06-21T03:31:52.197Z,14.69
2018-06-21T03:32:52.196Z,14.86
2018-06-21T03:33:52.194Z,14.71
2018-06-21T03:34:52.181Z,14.79
2018-06-21T03:35:51.923Z,14.8
2018-06-21T03:36:52.177Z,14.86
2018-06-21T03:37:52.169Z,14.86
2018-06-21T03:38:52.160Z,14.82
2018-06-21T03:39:51.900Z,14.79
2018-06-21T03:40:52.154Z,14.9
2018-06-21T03:41:52.149Z,14.87
2018-06-21T03:42:52.145Z,14.94
2018-06-21T03:43:52.142Z,14.98
2018-06-21T03:44:52.136Z,14.93
2018-06-21T03:45:52.126Z,14.94
2018-06-21T03:46:51.863Z,15.01
2018-06-21T03:47:52.120Z,15.02
2018-06-21T03:48:52.108Z,15
2018-06-21T03:49:52.104Z,15
2018-06-21T03:50:52.099Z,15.04
2018-06-21T03:51:51.840Z,15.07
2018-06-21T03:52:52.090Z,15.02
2018-06-21T03:53:52.084Z,15.04
2018-06-21T03:54:52.079Z,15.1
2018-06-21T03:55:52.076Z,15.07
2018-06-21T03:56:51.811Z,15.16
2018-06-21T03:57:52.065Z,15.13
2018-06-21T03:58:51.798Z,15.2
2018-06-21T03:59:52.056Z,15.22
2018-06-21T04:00:52.050Z,15.27
2018-06-21T04:01:52.039Z,15.37
2018-06-21T04:02:52.041Z,15.31
2018-06-21T04:03:51.775Z,15.35
2018-06-21T04:04:51.771Z,15.38
2018-06-21T04:05:51.766Z,15.44
2018-06-21T04:06:51.763Z,15.41
2018-06-21T04:07:52.019Z,15.43
2018-06-21T04:08:52.006Z,15.53
2018-06-21T04:09:51.745Z,15.56
2018-06-21T04:10:52.003Z,15.59
2018-06-21T04:11:51.997Z,15.63
2018-06-21T04:12:51.988Z,15.62
2018-06-21T04:13:52.007Z,15.58
2018-06-21T04:14:51.981Z,15.75
2018-06-21T04:15:51.969Z,15.75
2018-06-21T04:16:51.967Z,15.81
2018-06-21T04:17:51.964Z,15.74
2018-06-21T04:18:51.966Z,15.91
2018-06-21T04:19:51.696Z,15.89
2018-06-21T04:20:51.689Z,15.96
2018-06-21T04:21:51.691Z,15.88
2018-06-21T04:22:51.695Z,15.98
2018-06-21T04:23:51.677Z,15.92
2018-06-21T04:24:51.925Z,16.02
2018-06-21T04:25:51.926Z,16.1
2018-06-21T04:26:51.926Z,16.14
2018-06-21T04:27:51.914Z,16.21
2018-06-21T04:28:51.912Z,16.18
2018-06-21T04:29:51.905Z,16.32
2018-06-21T04:30:51.905Z,16.26
2018-06-21T04:31:51.905Z,16.26
2018-06-21T04:32:51.889Z,16.3
2018-06-21T04:33:51.630Z,16.37
2018-06-21T04:34:51.626Z,16.44
2018-06-21T04:35:51.878Z,16.47
2018-06-21T04:36:51.876Z,16.59
2018-06-21T04:37:51.685Z,16.7
2018-06-21T04:38:51.865Z,16.76
2018-06-21T04:39:51.873Z,16.95
2018-06-21T04:40:51.855Z,17.03
2018-06-21T04:41:51.856Z,17.07
2018-06-21T04:42:51.847Z,17.06
2018-06-21T04:43:51.848Z,17.12
2018-06-21T04:44:51.649Z,17.15
2018-06-21T04:45:51.952Z,17.13
2018-06-21T04:46:51.833Z,17.13
2018-06-21T04:47:51.841Z,17.21
2018-06-21T04:48:51.826Z,17.28
2018-06-21T04:49:51.569Z,17.32
2018-06-21T04:50:51.825Z,17.39
2018-06-21T04:51:51.822Z,17.49
2018-06-21T04:52:51.812Z,17.62
2018-06-21T04:53:51.809Z,17.58
2018-06-21T04:54:51.811Z,17.79
2018-06-21T04:55:51.548Z,17.84
2018-06-21T04:56:51.797Z,17.98
2018-06-21T04:57:51.277Z,18.03
2018-06-21T04:58:51.793Z,18.17
2018-06-21T04:59:51.532Z,18.27
2018-06-21T05:00:51.530Z,18.23
2018-06-21T05:01:51.524Z,18.31
2018-06-21T05:02:51.779Z,18.44
2018-06-21T05:03:51.519Z,18.54
2018-06-21T05:04:51.770Z,18.6
2018-06-21T05:05:51.768Z,18.68
2018-06-21T05:06:51.508Z,18.72
2018-06-21T05:07:51.772Z,18.84
2018-06-21T05:08:51.508Z,18.91
2018-06-21T05:09:51.771Z,18.97
2018-06-21T05:10:51.750Z,19.05
2018-06-21T05:11:51.749Z,19.16
2018-06-21T05:12:51.749Z,19.15
2018-06-21T05:13:51.746Z,19.19
2018-06-21T05:14:51.493Z,19.19
2018-06-21T05:15:51.231Z,19.17
2018-06-21T05:16:51.739Z,19.07
2018-06-21T05:17:51.742Z,19.06
2018-06-21T05:18:51.476Z,19.09
2018-06-21T05:19:51.744Z,19.06
2018-06-21T05:20:51.476Z,19.07
2018-06-21T05:21:51.742Z,19.06
2018-06-21T05:22:51.726Z,19.09
2018-06-21T05:23:51.728Z,19.13
2018-06-21T05:24:51.725Z,19.15
2018-06-21T05:25:51.763Z,19.1
2018-06-21T05:26:51.728Z,19.07
2018-06-21T05:27:51.465Z,19.24
2018-06-21T05:28:51.713Z,19.25
2018-06-21T05:29:51.712Z,19.27
2018-06-21T05:30:51.195Z,19.38
2018-06-21T05:31:51.450Z,19.47
2018-06-21T05:32:51.703Z,19.55
2018-06-21T05:33:51.701Z,19.68
2018-06-21T05:34:51.450Z,19.87
2018-06-21T05:35:51.439Z,20.01
2018-06-21T05:36:51.704Z,20.12
2018-06-21T05:37:51.439Z,20.4
2018-06-21T05:38:51.694Z,20.63
2018-06-21T05:39:51.691Z,20.79
2018-06-21T05:40:51.686Z,21.06
2018-06-21T05:41:51.444Z,21.19
2018-06-21T05:42:51.689Z,21.23
2018-06-21T05:43:51.688Z,21.38
2018-06-21T05:44:51.688Z,21.45
2018-06-21T05:45:51.433Z,21.62
2018-06-21T05:46:51.687Z,21.97
2018-06-21T05:47:51.683Z,22.05
2018-06-21T05:48:51.428Z,22.23
2018-06-21T05:49:51.692Z,22.42
2018-06-21T05:50:51.426Z,22.48
2018-06-21T05:51:51.680Z,22.44
2018-06-21T05:52:51.678Z,22.55
2018-06-21T05:53:51.686Z,22.59
2018-06-21T05:54:51.418Z,22.7
2018-06-21T05:55:51.420Z,22.66
2018-06-21T05:56:51.813Z,22.6
2018-06-21T05:57:51.676Z,22.7
2018-06-21T05:58:51.422Z,22.67
2018-06-21T05:59:51.685Z,22.71
2018-06-21T06:00:51.679Z,22.66
2018-06-21T06:01:51.764Z,22.73
2018-06-21T06:02:51.676Z,22.75
2018-06-21T06:03:51.680Z,22.91
2018-06-21T06:04:51.684Z,23.01
2018-06-21T06:05:51.425Z,22.97
2018-06-21T06:06:51.426Z,22.99
2018-06-21T06:07:51.692Z,23.01
2018-06-21T06:08:51.423Z,23.15
2018-06-21T06:09:51.688Z,23.14
2018-06-21T06:10:51.428Z,23.24
2018-06-21T06:11:51.430Z,23.4
2018-06-21T06:12:51.426Z,23.48
2018-06-21T06:13:51.722Z,23.53
2018-06-21T06:14:51.430Z,23.53
2018-06-21T06:15:51.688Z,23.7
2018-06-21T06:16:51.432Z,23.79
2018-06-21T06:17:51.698Z,23.84
2018-06-21T06:18:51.435Z,24.02
2018-06-21T06:19:51.692Z,24
2018-06-21T06:20:51.691Z,23.9
2018-06-21T06:21:51.695Z,23.96
2018-06-21T06:22:51.750Z,23.84
2018-06-21T06:23:51.698Z,23.78
2018-06-21T06:24:51.441Z,23.72
2018-06-21T06:25:51.700Z,23.67
2018-06-21T06:26:51.444Z,23.64
2018-06-21T06:27:51.701Z,23.66
2018-06-21T06:28:51.451Z,23.67
2018-06-21T06:29:51.959Z,23.71
2018-06-21T06:30:51.448Z,23.78
2018-06-21T06:31:51.457Z,23.87
2018-06-21T06:32:51.194Z,23.9
2018-06-21T06:33:51.708Z,23.84
2018-06-21T06:34:51.199Z,23.92
2018-06-21T06:35:51.455Z,23.94
2018-06-21T06:36:51.459Z,24.17
2018-06-21T06:37:51.721Z,24.21
2018-06-21T06:38:51.726Z,24.34
2018-06-21T06:39:51.721Z,24.51
2018-06-21T06:40:51.466Z,24.71
2018-06-21T06:41:51.727Z,25.01
2018-06-21T06:42:51.470Z,25.34
2018-06-21T06:43:51.724Z,26.01
2018-06-21T06:44:51.734Z,26.82
2018-06-21T06:45:51.738Z,27.45
2018-06-21T06:46:51.739Z,28.16
2018-06-21T06:47:51.489Z,28.88
2018-06-21T06:48:51.486Z,29.4
2018-06-21T06:49:51.491Z,29.98
2018-06-21T06:50:51.748Z,30.54
2018-06-21T06:51:51.757Z,31.04
2018-06-21T06:52:51.752Z,31.55
2018-06-21T06:53:51.501Z,31.88
2018-06-21T06:54:52.063Z,32.31
2018-06-21T06:55:51.768Z,32.52
2018-06-21T06:56:51.780Z,32.68
2018-06-21T06:57:51.783Z,32.83
2018-06-21T06:58:51.540Z,32.91
2018-06-21T06:59:51.788Z,32.91
2018-06-21T07:00:51.801Z,33.01
2018-06-21T07:01:51.570Z,33.03
2018-06-21T07:02:51.821Z,33.26
2018-06-21T07:03:51.559Z,33.43
2018-06-21T07:04:51.830Z,33.74
2018-06-21T07:05:51.833Z,33.77
2018-06-21T07:06:51.591Z,33.63
2018-06-21T07:07:51.333Z,33.68
2018-06-21T07:08:51.865Z,33.77
2018-06-21T07:09:51.609Z,33.97
2018-06-21T07:10:51.883Z,34.26
2018-06-21T07:11:51.878Z,34.41
2018-06-21T07:12:51.889Z,34.49
2018-06-21T07:13:51.637Z,34.64
2018-06-21T07:14:51.898Z,34.79
2018-06-21T07:15:51.656Z,34.87
2018-06-21T07:16:51.662Z,35.12
2018-06-21T07:17:51.414Z,35.3
2018-06-21T07:18:51.691Z,35.34
2018-06-21T07:19:51.995Z,35.43
2018-06-21T07:20:51.441Z,35.47
2018-06-21T07:21:51.968Z,35.62
2018-06-21T07:22:51.459Z,35.89
2018-06-21T07:23:51.990Z,35.96
2018-06-21T07:24:52.000Z,36.08
2018-06-21T07:25:51.999Z,36.18
2018-06-21T07:26:52.012Z,36.09
2018-06-21T07:27:52.014Z,35.89
2018-06-21T07:28:52.030Z,35.71
2018-06-21T07:29:51.915Z,35.77
2018-06-21T07:30:52.056Z,35.67
2018-06-21T07:31:52.075Z,35.8
2018-06-21T07:32:52.101Z,35.84
2018-06-21T07:33:52.079Z,36.09
2018-06-21T07:34:52.096Z,36.25
2018-06-21T07:35:52.101Z,36.52
2018-06-21T07:36:51.857Z,36.37
2018-06-21T07:37:52.127Z,35.9
2018-06-21T07:38:52.295Z,35.67
2018-06-21T07:39:52.140Z,35.04
2018-06-21T07:40:52.153Z,34.37
2018-06-21T07:41:51.917Z,33.65
2018-06-21T07:42:52.180Z,33.39
2018-06-21T07:43:51.923Z,33.55
2018-06-21T07:44:52.198Z,33.85
2018-06-21T07:45:52.200Z,33.78
2018-06-21T07:46:52.054Z,33.21
2018-06-21T07:47:52.219Z,32.43
2018-06-21T07:48:52.236Z,31.67
2018-06-21T07:49:51.987Z,31
2018-06-21T07:50:51.740Z,30.59
2018-06-21T07:51:52.264Z,30.7
2018-06-21T07:52:52.273Z,31.08
2018-06-21T07:53:52.460Z,31.08
2018-06-21T07:54:52.285Z,31
2018-06-21T07:55:52.292Z,30.79
2018-06-21T07:56:52.305Z,31.08
2018-06-21T07:57:52.310Z,31.49
2018-06-21T07:58:52.066Z,31.7
2018-06-21T07:59:52.332Z,31.55
2018-06-21T08:00:52.339Z,31.55
2018-06-21T08:01:52.351Z,31.37
2018-06-21T08:02:52.104Z,31.16
2018-06-21T08:03:52.365Z,30.7
2018-06-21T08:04:52.368Z,30.24
2018-06-21T08:05:52.378Z,29.82
2018-06-21T08:06:52.398Z,29.3
2018-06-21T08:07:52.141Z,28.95
2018-06-21T08:08:52.403Z,28.85
2018-06-21T08:09:52.410Z,28.67
2018-06-21T08:10:52.419Z,28.91
2018-06-21T08:11:52.160Z,29.33
2018-06-21T08:12:52.575Z,30.07
2018-06-21T08:13:52.180Z,30.77
2018-06-21T08:14:52.492Z,31.22
2018-06-21T08:15:52.449Z,31.62
2018-06-21T08:16:52.454Z,31.88
2018-06-21T08:17:52.461Z,31.78
2018-06-21T08:18:52.465Z,31.6
2018-06-21T08:19:52.218Z,31.23
2018-06-21T08:20:52.484Z,30.96
2018-06-21T08:21:52.499Z,30.71
2018-06-21T08:22:52.494Z,30.67
2018-06-21T08:23:52.238Z,30.34
2018-06-21T08:24:52.504Z,30.06
2018-06-21T08:25:52.536Z,29.75
2018-06-21T08:26:52.773Z,29.32
2018-06-21T08:27:52.266Z,29.03
2018-06-21T08:28:52.010Z,28.91
2018-06-21T08:29:52.528Z,28.76
2018-06-21T08:30:52.279Z,28.65
2018-06-21T08:31:52.542Z,28.57
2018-06-21T08:32:52.289Z,28.55
2018-06-21T08:33:52.305Z,28.53
2018-06-21T08:34:52.299Z,28.33
2018-06-21T08:35:52.304Z,28.18
2018-06-21T08:36:52.312Z,28.08
2018-06-21T08:37:52.315Z,27.98
2018-06-21T08:38:52.374Z,28.03
2018-06-21T08:39:52.585Z,27.96
2018-06-21T08:40:52.597Z,27.9
2018-06-21T08:41:52.337Z,27.87
2018-06-21T08:42:52.603Z,27.91
2018-06-21T08:43:52.351Z,27.9
2018-06-21T08:44:52.615Z,28.05
2018-06-21T08:45:52.632Z,28.24
2018-06-21T08:46:52.394Z,28.27
2018-06-21T08:47:52.625Z,28.21
2018-06-21T08:48:52.374Z,28.17
2018-06-21T08:49:52.636Z,28.11
2018-06-21T08:50:52.642Z,27.84
2018-06-21T08:51:52.390Z,27.74
2018-06-21T08:52:52.396Z,27.71
2018-06-21T08:53:52.403Z,27.65
2018-06-21T08:54:52.656Z,27.62
2018-06-21T08:55:52.419Z,27.64
2018-06-21T08:56:52.669Z,27.65
2018-06-21T08:57:52.678Z,27.76
2018-06-21T08:58:52.424Z,27.72
2018-06-21T08:59:52.430Z,27.79
2018-06-21T09:00:52.690Z,27.66
2018-06-21T09:01:52.703Z,27.46
2018-06-21T09:02:52.704Z,27.46
2018-06-21T09:03:52.551Z,27.38
2018-06-21T09:04:52.705Z,27.19
2018-06-21T09:05:52.721Z,27.24
2018-06-21T09:06:52.466Z,27.27
2018-06-21T09:07:52.466Z,27.41
2018-06-21T09:08:52.468Z,27.51
2018-06-21T09:09:52.481Z,27.45
2018-06-21T09:10:52.740Z,27.34
2018-06-21T09:11:52.755Z,27.12
2018-06-21T09:12:52.749Z,26.86
2018-06-21T09:13:52.751Z,26.61
2018-06-21T09:14:52.501Z,26.37
2018-06-21T09:15:52.761Z,26.3
2018-06-21T09:16:52.771Z,26.35
2018-06-21T09:17:52.515Z,26.63
2018-06-21T09:18:52.785Z,26.78
2018-06-21T09:19:52.776Z,27.16
2018-06-21T09:20:52.524Z,27.26
2018-06-21T09:21:52.788Z,27.36
2018-06-21T09:22:52.788Z,27.34
2018-06-21T09:23:52.796Z,27.31
2018-06-21T09:24:52.800Z,27.36
2018-06-21T09:25:52.547Z,27.31
2018-06-21T09:26:52.810Z,27.27
2018-06-21T09:27:52.816Z,27.37
2018-06-21T09:28:52.817Z,27.42
2018-06-21T09:29:52.827Z,27.37
2018-06-21T09:30:52.825Z,27.27
2018-06-21T09:31:52.828Z,27.28
2018-06-21T09:32:52.832Z,27.43
2018-06-21T09:33:52.837Z,27.71
2018-06-21T09:34:52.584Z,27.68
2018-06-21T09:35:52.334Z,28.01
2018-06-21T09:36:52.594Z,27.96
2018-06-21T09:37:52.858Z,28.03
2018-06-21T09:38:52.861Z,28.14
2018-06-21T09:39:52.872Z,28.2
2018-06-21T09:40:52.872Z,28.33
2018-06-21T09:41:52.905Z,28.48
2018-06-21T09:42:52.874Z,28.42
2018-06-21T09:44:08.132Z,28.53
2018-06-21T09:44:52.890Z,28.57
2018-06-21T09:45:52.894Z,28.78
2018-06-21T09:46:52.643Z,28.65
2018-06-21T09:47:52.903Z,28.39
2018-06-21T09:48:52.912Z,28.16
2018-06-21T09:49:52.400Z,27.98
2018-06-21T09:50:52.919Z,27.86
2018-06-21T09:51:52.922Z,27.69
2018-06-21T09:52:52.928Z,27.64
2018-06-21T09:53:52.680Z,27.57
2018-06-21T09:54:52.939Z,27.66
2018-06-21T09:55:54.844Z,27.79
2018-06-21T09:57:08.642Z,27.98
2018-06-21T09:57:55.689Z,28.09
2018-06-21T09:58:55.241Z,28.21
2018-06-21T09:59:54.112Z,28.46
2018-06-21T10:00:54.698Z,28.48
2018-06-21T10:01:54.606Z,28.58
2018-06-21T10:02:55.112Z,28.53
2018-06-21T10:03:55.408Z,28.58
2018-06-21T10:04:54.782Z,28.61
2018-06-21T10:05:55.559Z,28.78
2018-06-21T10:06:57.238Z,28.82
2018-06-21T10:07:55.257Z,28.78
2018-06-21T10:08:54.242Z,28.67
2018-06-21T10:09:57.330Z,28.68
2018-06-21T10:10:56.182Z,28.68
2018-06-21T10:12:54.210Z,28.55
2018-06-21T10:13:53.008Z,28.46
2018-06-21T10:14:55.697Z,28.33
2018-06-21T10:15:54.896Z,28.21
2018-06-21T10:16:54.508Z,28.03
2018-06-21T10:17:54.340Z,28.09
2018-06-21T10:18:54.800Z,28.16
2018-06-21T10:19:54.199Z,28.31
2018-06-21T10:20:53.108Z,28.49
2018-06-21T10:21:55.946Z,28.57
2018-06-21T10:22:54.499Z,28.7
2018-06-21T10:23:54.549Z,28.64
2018-06-21T10:24:55.690Z,28.78
2018-06-21T10:25:56.110Z,28.76
2018-06-21T10:26:55.309Z,28.72
2018-06-21T10:27:53.839Z,28.51
2018-06-21T10:29:08.923Z,28.28
2018-06-21T10:29:54.140Z,28.2
2018-06-21T10:30:54.015Z,28.16
2018-06-21T10:31:53.887Z,27.86
2018-06-21T10:32:54.118Z,27.65
2018-06-21T10:33:56.467Z,27.41
2018-06-21T10:34:53.710Z,27.28
2018-06-21T10:35:54.011Z,27.31
2018-06-21T10:36:55.887Z,27.33
2018-06-21T10:38:22.922Z,27.31
2018-06-21T10:38:55.429Z,27.42
2018-06-21T10:39:53.168Z,27.42
2018-06-21T10:40:54.336Z,27.65
2018-06-21T10:41:54.267Z,27.55
2018-06-21T10:42:53.770Z,27.42
2018-06-21T10:44:09.407Z,27.41
2018-06-21T10:44:55.289Z,27.31
2018-06-21T10:45:54.609Z,27.34
2018-06-21T10:46:53.544Z,27.45
2018-06-21T10:47:56.173Z,27.51
2018-06-21T10:48:54.805Z,27.51
2018-06-21T10:49:54.724Z,27.59
2018-06-21T10:50:53.311Z,27.53
2018-06-21T10:51:54.170Z,27.53
2018-06-21T23:30:48.343Z,9.59
2018-06-21T23:31:48.591Z,9.6
2018-06-21T23:32:48.324Z,9.55
2018-06-21T23:33:48.569Z,9.53
2018-06-21T23:34:48.555Z,9.6
2018-06-21T23:35:48.291Z,9.71
2018-06-21T23:36:48.284Z,9.57
2018-06-21T23:37:48.526Z,9.52
2018-06-21T23:38:48.517Z,9.62
2018-06-21T23:39:48.506Z,9.59
2018-06-21T23:40:48.573Z,9.5
2018-06-21T23:41:48.223Z,9.48
2018-06-21T23:42:48.469Z,9.47
2018-06-21T23:43:48.465Z,9.55
2018-06-21T23:44:48.458Z,9.39
2018-06-21T23:45:48.183Z,9.53
2018-06-21T23:46:48.432Z,9.35
2018-06-21T23:47:48.169Z,9.32
2018-06-21T23:48:48.156Z,9.3
2018-06-21T23:49:48.400Z,9.3
2018-06-21T23:50:48.450Z,9.27
2018-06-21T23:51:48.381Z,9.34
2018-06-21T23:52:50.885Z,9.3
2018-06-21T23:53:48.363Z,9.27
2018-06-21T23:54:48.350Z,9.2
2018-06-21T23:55:48.344Z,9.2
2018-06-21T23:56:48.072Z,9.19
2018-06-21T23:57:48.321Z,9.27
2018-06-21T23:58:48.314Z,9.29
2018-06-21T23:59:48.299Z,9.32
